Time;durP1;ratioP1;P1;durP2;ratioP2;P2;SDS_P1;SDS_P2;PMS_P1;PMS_P2;Temp;Humidity;BMP_temperature;BMP_pressure;BME280_temperature;BME280_humidity;BME280_pressure;Samples;Min_cycle;Max_cycle;Signal;HPM_P1;HPM_P2
2022/06/06 00:00:12;;;;;;;3.10;2.30;;;;;;;;;;5033950;28;20246;-87
2022/06/06 00:02:40;;;;;;;4.73;2.57;;;;;;;;;;5034672;28;20203;-86
2022/06/06 00:05:08;;;;;;;4.15;2.35;;;;;;;;;;5033872;28;20261;-87
2022/06/06 00:07:35;;;;;;;2.97;2.53;;;;;;;;;;5034056;28;20248;-89
2022/06/06 00:10:02;;;;;;;3.33;2.80;;;;;;;;;;5033914;28;20555;-89
2022/06/06 00:12:30;;;;;;;2.50;2.30;;;;;;;;;;5034537;28;20525;-88
2022/06/06 00:14:59;;;;;;;2.45;2.25;;;;;;;;;;5033866;28;20592;-88
2022/06/06 00:17:26;;;;;;;3.27;2.70;;;;;;;;;;5059695;23;20250;-80
2022/06/06 00:19:54;;;;;;;2.60;2.33;;;;;;;;;;5075909;28;20295;-80
2022/06/06 00:22:21;;;;;;;2.60;2.40;;;;;;;;;;5060445;28;20205;-80
2022/06/06 00:24:48;;;;;;;3.70;2.60;;;;;;;;;;5058191;28;20234;-81
2022/06/06 00:27:15;;;;;;;4.27;2.70;;;;;;;;;;5057041;28;20235;-79
2022/06/06 00:29:42;;;;;;;5.30;2.70;;;;;;;;;;5038887;28;20215;-80
2022/06/06 00:34:58;;;;;;;3.20;2.83;;;;;;;;;;5039285;28;20326;-79
2022/06/06 00:37:27;;;;;;;4.05;2.80;;;;;;;;;;5039734;28;20222;-80
2022/06/06 00:39:54;;;;;;;4.27;2.83;;;;;;;;;;5040052;28;20230;-79
2022/06/06 00:42:24;;;;;;;4.70;2.67;;;;;;;;;;5039806;28;20214;-80
2022/06/06 00:45:06;;;;;;;3.80;2.63;;;;;;;;;;5039636;28;20242;-81
2022/06/06 00:47:36;;;;;;;3.80;2.90;;;;;;;;;;5038777;28;20223;-80
2022/06/06 00:50:06;;;;;;;3.30;3.00;;;;;;;;;;5038678;28;20246;-81
2022/06/06 00:52:34;;;;;;;3.07;2.70;;;;;;;;;;5039619;28;20207;-81
2022/06/06 00:55:02;;;;;;;5.77;2.90;;;;;;;;;;5041040;28;20234;-79
2022/06/06 00:57:31;;;;;;;3.00;2.70;;;;;;;;;;5040031;28;20223;-80
2022/06/06 00:59:59;;;;;;;4.87;3.43;;;;;;;;;;5038361;28;20225;-79
2022/06/06 01:02:26;;;;;;;4.07;3.00;;;;;;;;;;5039919;28;20195;-80
2022/06/06 01:04:56;;;;;;;3.00;2.80;;;;;;;;;;5039263;28;20234;-80
2022/06/06 01:07:23;;;;;;;3.40;3.10;;;;;;;;;;5037718;28;20223;-80
2022/06/06 01:09:50;;;;;;;3.57;2.93;;;;;;;;;;5050224;28;20232;-80
2022/06/06 01:12:19;;;;;;;3.78;3.47;;;;;;;;;;5059216;28;20198;-80
2022/06/06 01:14:47;;;;;;;4.50;3.07;;;;;;;;;;5040605;28;20234;-80
2022/06/06 01:17:20;;;;;;;3.65;2.92;;;;;;;;;;5040176;28;20226;-79
2022/06/06 01:20:02;;;;;;;4.93;3.20;;;;;;;;;;5039030;28;20234;-80
2022/06/06 01:22:38;;;;;;;3.90;3.47;;;;;;;;;;5037570;28;20206;-80
2022/06/06 01:25:19;;;;;;;4.73;3.30;;;;;;;;;;5039388;28;20245;-81
2022/06/06 01:27:51;;;;;;;3.87;3.23;;;;;;;;;;5039383;28;20222;-79
2022/06/06 01:30:21;;;;;;;5.27;3.30;;;;;;;;;;5038474;28;20234;-80
2022/06/06 01:32:51;;;;;;;7.87;3.77;;;;;;;;;;5038831;28;20218;-81
2022/06/06 01:35:24;;;;;;;4.60;3.83;;;;;;;;;;5038327;28;20725;-80
2022/06/06 01:37:51;;;;;;;4.67;3.67;;;;;;;;;;5039909;28;20234;-80
2022/06/06 01:40:19;;;;;;;4.63;4.07;;;;;;;;;;5039264;28;20269;-79
2022/06/06 01:42:49;;;;;;;4.37;3.67;;;;;;;;;;5038940;28;20222;-81
2022/06/06 01:45:19;;;;;;;4.50;3.80;;;;;;;;;;5037401;28;20238;-81
2022/06/06 01:47:51;;;;;;;4.57;4.17;;;;;;;;;;5037224;28;20222;-81
2022/06/06 01:50:19;;;;;;;4.27;3.80;;;;;;;;;;5037140;28;20238;-81
2022/06/06 01:52:54;;;;;;;5.17;4.00;;;;;;;;;;5037730;28;20198;-82
2022/06/06 01:55:21;;;;;;;5.47;4.50;;;;;;;;;;5037791;28;20732;-81
2022/06/06 01:57:50;;;;;;;6.13;4.47;;;;;;;;;;5038998;28;20703;-81
2022/06/06 02:00:17;;;;;;;7.50;3.97;;;;;;;;;;5039642;28;20234;-81
2022/06/06 02:02:44;;;;;;;5.60;4.40;;;;;;;;;;5053670;28;20198;-81
2022/06/06 02:05:13;;;;;;;4.40;4.10;;;;;;;;;;5057217;28;20240;-80
2022/06/06 02:07:40;;;;;;;6.43;4.33;;;;;;;;;;5058376;28;20224;-81
2022/06/06 02:10:09;;;;;;;9.37;4.60;;;;;;;;;;5056865;28;20245;-81
2022/06/06 02:12:37;;;;;;;5.27;4.40;;;;;;;;;;5057663;28;20212;-81
2022/06/06 02:15:05;;;;;;;7.20;4.80;;;;;;;;;;5056624;28;20233;-81
2022/06/06 02:17:32;;;;;;;6.43;4.83;;;;;;;;;;5055425;28;20713;-80
2022/06/06 02:20:02;;;;;;;5.70;5.20;;;;;;;;;;5056983;28;20244;-81
2022/06/06 02:22:30;;;;;;;6.57;4.57;;;;;;;;;;5057553;28;20658;-80
2022/06/06 02:24:57;;;;;;;5.77;4.77;;;;;;;;;;5056675;28;20689;-80
2022/06/06 02:27:24;;;;;;;6.57;4.33;;;;;;;;;;5057801;28;20724;-80
2022/06/06 02:29:51;;;;;;;5.50;4.93;;;;;;;;;;5057406;28;20605;-80
2022/06/06 02:32:19;;;;;;;6.57;5.03;;;;;;;;;;5056814;28;20796;-80
2022/06/06 02:34:46;;;;;;;6.13;4.97;;;;;;;;;;5056312;28;20234;-81
2022/06/06 02:37:13;;;;;;;5.57;5.03;;;;;;;;;;5056690;28;20326;-80
2022/06/06 02:39:42;;;;;;;4.60;3.90;;;;;;;;;;5055736;28;20218;-80
2022/06/06 02:42:09;;;;;;;3.67;3.37;;;;;;;;;;5056600;28;20202;-80
2022/06/06 02:44:36;;;;;;;4.90;3.73;;;;;;;;;;5058837;28;20229;-80
2022/06/06 02:47:04;;;;;;;3.47;3.17;;;;;;;;;;5061065;28;20202;-80
2022/06/06 02:49:33;;;;;;;3.67;2.90;;;;;;;;;;5060830;28;20206;-81
2022/06/06 02:52:00;;;;;;;3.10;2.83;;;;;;;;;;5060606;28;20236;-80
2022/06/06 02:54:27;;;;;;;3.03;2.80;;;;;;;;;;5060344;28;20242;-80
2022/06/06 02:56:56;;;;;;;2.20;2.10;;;;;;;;;;5060385;28;20210;-80
2022/06/06 02:59:25;;;;;;;2.30;2.10;;;;;;;;;;5059244;28;20206;-80
2022/06/06 03:01:52;;;;;;;3.03;2.40;;;;;;;;;;5060715;28;20268;-80
2022/06/06 03:04:19;;;;;;;3.53;2.10;;;;;;;;;;5059731;28;20744;-81
2022/06/06 03:06:54;;;;;;;1.80;1.70;;;;;;;;;;5060092;28;20713;-80
2022/06/06 03:09:26;;;;;;;2.10;1.93;;;;;;;;;;5060518;28;20729;-80
2022/06/06 03:12:01;;;;;;;1.80;1.70;;;;;;;;;;5059068;28;20221;-81
2022/06/06 03:14:36;;;;;;;2.07;1.97;;;;;;;;;;5059402;28;20201;-80
2022/06/06 03:22:53;;;;;;;1.97;1.70;;;;;;;;;;5059892;28;20197;-80
2022/06/06 03:25:23;;;;;;;1.77;1.67;;;;;;;;;;5058414;28;20241;-81
2022/06/06 03:27:54;;;;;;;1.80;1.70;;;;;;;;;;5059801;28;20229;-80
2022/06/06 03:30:23;;;;;;;2.20;2.10;;;;;;;;;;5058853;28;20237;-81
2022/06/06 03:32:58;;;;;;;2.63;2.43;;;;;;;;;;5058855;28;20210;-80
2022/06/06 03:35:36;;;;;;;1.90;1.80;;;;;;;;;;5058860;28;20237;-80
2022/06/06 03:38:05;;;;;;;2.00;1.83;;;;;;;;;;5059942;28;20225;-81
2022/06/06 03:40:39;;;;;;;1.67;1.57;;;;;;;;;;5060543;28;20264;-82
2022/06/06 03:43:14;;;;;;;1.90;1.80;;;;;;;;;;5060910;28;20194;-81
2022/06/06 03:45:44;;;;;;;1.67;1.57;;;;;;;;;;5059869;28;20324;-81
2022/06/06 03:48:16;;;;;;;1.87;1.77;;;;;;;;;;5059678;28;20236;-80
2022/06/06 03:50:48;;;;;;;1.70;1.60;;;;;;;;;;5058168;28;20234;-80
2022/06/06 03:53:17;;;;;;;1.80;1.70;;;;;;;;;;5059316;28;20642;-81
2022/06/06 03:55:49;;;;;;;1.73;1.43;;;;;;;;;;5057059;28;20241;-80
2022/06/06 03:58:21;;;;;;;2.20;2.00;;;;;;;;;;5058677;28;20662;-81
2022/06/06 04:00:48;;;;;;;1.90;1.80;;;;;;;;;;5058822;28;20237;-80
2022/06/06 04:03:16;;;;;;;1.53;1.43;;;;;;;;;;5059021;28;20604;-80
2022/06/06 04:05:43;;;;;;;1.97;1.87;;;;;;;;;;5058053;28;20234;-80
2022/06/06 04:08:11;;;;;;;1.73;1.63;;;;;;;;;;5058705;28;20237;-81
2022/06/06 04:10:42;;;;;;;2.10;1.83;;;;;;;;;;5057835;28;20238;-80
2022/06/06 04:13:17;;;;;;;2.37;2.17;;;;;;;;;;5057894;28;20205;-81
2022/06/06 04:15:52;;;;;;;1.97;1.87;;;;;;;;;;5056656;28;20229;-80
2022/06/06 04:18:29;;;;;;;2.37;2.17;;;;;;;;;;5057262;28;20233;-80
2022/06/06 04:21:03;;;;;;;2.50;2.10;;;;;;;;;;5057278;28;20240;-80
2022/06/06 04:23:38;;;;;;;2.10;2.00;;;;;;;;;;5057333;28;20206;-80
2022/06/06 04:26:11;;;;;;;2.63;2.20;;;;;;;;;;5058906;28;20240;-80
2022/06/06 04:28:43;;;;;;;2.00;1.90;;;;;;;;;;5059670;28;20214;-79
2022/06/06 04:31:14;;;;;;;2.30;2.13;;;;;;;;;;5059301;28;20233;-80
2022/06/06 04:33:45;;;;;;;2.27;2.07;;;;;;;;;;5060380;28;20207;-80
2022/06/06 04:36:15;;;;;;;2.27;2.10;;;;;;;;;;5060193;28;20229;-80
2022/06/06 04:38:45;;;;;;;2.33;2.13;;;;;;;;;;5059312;28;20228;-80
2022/06/06 04:41:17;;;;;;;2.33;2.00;;;;;;;;;;5058884;28;20242;-80
2022/06/06 04:43:49;;;;;;;2.50;2.20;;;;;;;;;;5059359;28;20206;-80
2022/06/06 04:46:20;;;;;;;1.90;1.80;;;;;;;;;;5057296;28;20241;-79
2022/06/06 04:48:48;;;;;;;2.77;1.70;;;;;;;;;;5057224;28;20607;-80
2022/06/06 04:51:18;;;;;;;2.10;1.93;;;;;;;;;;5057866;28;20230;-79
2022/06/06 04:53:47;;;;;;;2.63;2.30;;;;;;;;;;5058861;28;20562;-81
2022/06/06 04:56:15;;;;;;;3.33;2.07;;;;;;;;;;5056503;28;20237;-80
2022/06/06 04:58:43;;;;;;;1.97;1.87;;;;;;;;;;5056850;28;20234;-81
2022/06/06 05:01:12;;;;;;;2.27;2.07;;;;;;;;;;5055884;28;20238;-80
2022/06/06 05:03:40;;;;;;;2.03;1.93;;;;;;;;;;5055229;28;20237;-80
2022/06/06 05:06:14;;;;;;;2.20;2.00;;;;;;;;;;5054062;28;20230;-80
2022/06/06 05:08:50;;;;;;;2.40;2.20;;;;;;;;;;5054728;28;20229;-80
2022/06/06 05:11:27;;;;;;;2.03;1.93;;;;;;;;;;5053075;28;20233;-80
2022/06/06 05:14:01;;;;;;;2.73;2.53;;;;;;;;;;5053695;28;20194;-79
2022/06/06 05:16:36;;;;;;;1.90;1.80;;;;;;;;;;5052694;28;20238;-79
2022/06/06 05:19:11;;;;;;;2.30;2.20;;;;;;;;;;5054081;28;20621;-79
2022/06/06 05:21:46;;;;;;;2.70;2.50;;;;;;;;;;5052620;28;20743;-80
2022/06/06 05:24:20;;;;;;;2.30;2.10;;;;;;;;;;5053547;28;20210;-80
2022/06/06 05:27:03;;;;;;;2.57;2.37;;;;;;;;;;5053051;28;20237;-80
2022/06/06 05:29:41;;;;;;;2.13;2.03;;;;;;;;;;5054002;28;20230;-80
2022/06/06 05:32:16;;;;;;;2.37;2.23;;;;;;;;;;5053894;28;20216;-80
2022/06/06 05:34:47;;;;;;;2.77;2.40;;;;;;;;;;5053366;28;20230;-80
2022/06/06 05:37:23;;;;;;;2.60;2.30;;;;;;;;;;5053513;28;20209;-80
2022/06/06 05:40:15;;;;;;;2.67;2.27;;;;;;;;;;5053200;28;20240;-80
2022/06/06 05:42:49;;;;;;;3.53;2.03;;;;;;;;;;5054131;28;20198;-80
2022/06/06 05:45:21;;;;;;;3.10;2.80;;;;;;;;;;5053091;28;20240;-80
2022/06/06 05:47:52;;;;;;;2.60;2.40;;;;;;;;;;5054028;28;20228;-79
2022/06/06 05:50:26;;;;;;;2.53;2.33;;;;;;;;;;5053949;28;20229;-80
2022/06/06 05:53:08;;;;;;;2.70;2.43;;;;;;;;;;5054393;28;20218;-80
2022/06/06 05:55:42;;;;;;;1.97;1.87;;;;;;;;;;5052685;28;20237;-81
2022/06/06 05:58:24;;;;;;;2.87;2.67;;;;;;;;;;5056128;28;20275;-80
2022/06/06 06:01:00;;;;;;;2.70;2.43;;;;;;;;;;5053487;28;20739;-80
2022/06/06 06:03:46;;;;;;;2.47;2.27;;;;;;;;;;5015139;28;20627;-79
2022/06/06 06:06:19;;;;;;;2.80;2.60;;;;;;;;;;5015199;28;20814;-80
2022/06/06 06:08:52;;;;;;;2.10;2.00;;;;;;;;;;5015857;28;20265;-80
2022/06/06 06:11:25;;;;;;;1.83;1.73;;;;;;;;;;5015545;28;20723;-80
2022/06/06 06:13:59;;;;;;;2.08;1.98;;;;;;;;;;5016760;28;20208;-80
2022/06/06 06:16:29;;;;;;;2.05;1.95;;;;;;;;;;5015091;28;20230;-80
2022/06/06 06:19:01;;;;;;;1.92;1.83;;;;;;;;;;5063489;22;20240;-83
2022/06/06 06:21:31;;;;;;;1.95;1.85;;;;;;;;;;5072466;28;20274;-84
2022/06/06 06:24:01;;;;;;;2.10;2.00;;;;;;;;;;5077989;28;20189;-82
2022/06/06 06:26:30;;;;;;;4.10;1.80;;;;;;;;;;5078999;28;20734;-84
2022/06/06 06:29:00;;;;;;;1.90;1.75;;;;;;;;;;5078961;28;20237;-83
2022/06/06 06:31:33;;;;;;;1.73;1.63;;;;;;;;;;5048760;28;20241;-82
2022/06/06 06:34:08;;;;;;;1.67;1.58;;;;;;;;;;5077828;28;20201;-83
2022/06/06 06:36:46;;;;;;;1.50;1.40;;;;;;;;;;5078169;28;20232;-83
2022/06/06 06:39:29;;;;;;;2.13;1.90;;;;;;;;;;5078362;28;20228;-82
2022/06/06 06:42:01;;;;;;;1.45;1.38;;;;;;;;;;5079325;28;20625;-85
2022/06/06 06:44:29;;;;;;;2.55;1.58;;;;;;;;;;5077943;28;20198;-82
2022/06/06 06:46:57;;;;;;;2.90;1.80;;;;;;;;;;5076243;28;20247;-84
2022/06/06 06:49:31;;;;;;;1.80;1.70;;;;;;;;;;5069404;28;20640;-85
2022/06/06 06:52:05;;;;;;;2.15;1.95;;;;;;;;;;5057052;28;20654;-85
2022/06/06 06:54:40;;;;;;;1.80;1.70;;;;;;;;;;5057312;28;20206;-83
2022/06/06 06:57:12;;;;;;;1.38;1.38;;;;;;;;;;5058627;28;20205;-82
2022/06/06 06:59:44;;;;;;;1.70;1.60;;;;;;;;;;5058605;28;20225;-82
2022/06/06 07:10:48;;;;;;;2.00;1.88;;;;;;;;;;5058013;28;20642;-80
2022/06/06 07:13:23;;;;;;;1.80;1.70;;;;;;;;;;5057191;28;20210;-82
2022/06/06 07:15:53;;;;;;;1.60;1.50;;;;;;;;;;5057479;28;20236;-80
2022/06/06 07:18:21;;;;;;;1.50;1.40;;;;;;;;;;5057948;28;20669;-81
2022/06/06 07:20:49;;;;;;;1.80;1.70;;;;;;;;;;5058145;28;20245;-80
2022/06/06 07:23:18;;;;;;;1.77;1.67;;;;;;;;;;5058299;28;20206;-81
2022/06/06 07:25:45;;;;;;;1.40;1.30;;;;;;;;;;5057589;28;20248;-81
2022/06/06 07:28:14;;;;;;;2.00;1.90;;;;;;;;;;5057008;28;20594;-81
2022/06/06 07:30:43;;;;;;;1.77;1.67;;;;;;;;;;5056567;28;20229;-81
2022/06/06 07:33:23;;;;;;;2.13;2.03;;;;;;;;;;5057718;28;20194;-84
2022/06/06 07:35:55;;;;;;;1.40;1.30;;;;;;;;;;5057093;28;20243;-84
2022/06/06 07:38:29;;;;;;;1.70;1.60;;;;;;;;;;5057436;28;20226;-82
2022/06/06 07:41:02;;;;;;;1.38;1.27;;;;;;;;;;5056887;28;20271;-81
2022/06/06 07:43:37;;;;;;;3.03;1.65;;;;;;;;;;5057485;28;20210;-82
2022/06/06 07:46:10;;;;;;;1.42;1.33;;;;;;;;;;5057132;28;20844;-81
2022/06/06 07:48:43;;;;;;;1.35;1.25;;;;;;;;;;5057450;28;20732;-82
2022/06/06 07:51:13;;;;;;;1.95;1.85;;;;;;;;;;5055811;28;20237;-79
2022/06/06 07:53:50;;;;;;;1.73;1.63;;;;;;;;;;5055666;28;20277;-82
2022/06/06 07:56:20;;;;;;;1.80;1.70;;;;;;;;;;5054900;28;20234;-80
2022/06/06 07:58:51;;;;;;;2.00;1.90;;;;;;;;;;5055814;28;20222;-81
2022/06/06 08:01:24;;;;;;;1.73;1.63;;;;;;;;;;5056721;28;20234;-82
2022/06/06 08:03:52;;;;;;;1.95;1.85;;;;;;;;;;5057283;28;20197;-82
2022/06/06 08:06:25;;;;;;;1.40;1.40;;;;;;;;;;5055224;28;20242;-80
2022/06/06 08:09:02;;;;;;;1.92;1.40;;;;;;;;;;5055427;28;20275;-79
2022/06/06 08:11:36;;;;;;;1.33;1.27;;;;;;;;;;5054955;28;20240;-80
2022/06/06 08:14:09;;;;;;;1.58;1.48;;;;;;;;;;5056420;28;20190;-85
2022/06/06 08:16:41;;;;;;;1.33;1.23;;;;;;;;;;5055312;28;20230;-81
2022/06/06 08:19:26;;;;;;;1.23;1.13;;;;;;;;;;5056173;28;20585;-82
2022/06/06 08:21:53;;;;;;;1.40;1.30;;;;;;;;;;5056003;28;20214;-81
2022/06/06 08:24:24;;;;;;;1.80;1.70;;;;;;;;;;5056025;28;20297;-80
2022/06/06 08:26:52;;;;;;;1.15;1.13;;;;;;;;;;5055317;28;20233;-84
2022/06/06 08:29:19;;;;;;;1.15;1.15;;;;;;;;;;5055803;28;20340;-80
2022/06/06 08:31:46;;;;;;;1.10;1.10;;;;;;;;;;5055167;28;20230;-79
2022/06/06 08:34:14;;;;;;;1.15;1.15;;;;;;;;;;5054629;28;20206;-81
2022/06/06 08:37:07;;;;;;;1.25;1.20;;;;;;;;;;5054036;28;20234;-80
2022/06/06 08:39:41;;;;;;;1.27;1.17;;;;;;;;;;5019425;28;20237;-81
2022/06/06 08:42:19;;;;;;;1.25;1.20;;;;;;;;;;5054874;28;20701;-80
2022/06/06 08:44:52;;;;;;;1.50;1.27;;;;;;;;;;5054377;28;20222;-81
2022/06/06 08:47:24;;;;;;;1.08;1.08;;;;;;;;;;5055748;28;20233;-81
2022/06/06 08:53:00;;;;;;;1.25;1.20;;;;;;;;;;5055747;28;20206;-83
2022/06/06 08:55:41;;;;;;;1.00;1.00;;;;;;;;;;5055240;28;20237;-80
2022/06/06 08:58:21;;;;;;;1.23;1.23;;;;;;;;;;5056054;28;20658;-82
2022/06/06 09:00:54;;;;;;;1.08;1.08;;;;;;;;;;5056106;28;20237;-84
2022/06/06 09:03:33;;;;;;;1.00;1.00;;;;;;;;;;5055404;28;20206;-84
2022/06/06 09:06:20;;;;;;;1.02;1.00;;;;;;;;;;5055414;28;20240;-85
2022/06/06 09:09:05;;;;;;;0.90;0.90;;;;;;;;;;5055921;28;20257;-84
2022/06/06 09:11:50;;;;;;;1.05;0.90;;;;;;;;;;5055431;28;20229;-84
2022/06/06 09:14:30;;;;;;;1.05;1.05;;;;;;;;;;5034657;28;20225;-85
2022/06/06 09:17:12;;;;;;;1.00;1.00;;;;;;;;;;5032419;28;20214;-85
2022/06/06 09:19:52;;;;;;;1.17;1.10;;;;;;;;;;5032846;28;20241;-87
2022/06/06 09:22:34;;;;;;;1.27;1.20;;;;;;;;;;5033736;28;20195;-86
2022/06/06 09:25:13;;;;;;;1.45;1.35;;;;;;;;;;5032417;28;20234;-85
2022/06/06 09:27:58;;;;;;;1.00;1.00;;;;;;;;;;5031892;28;20698;-86
2022/06/06 09:30:32;;;;;;;1.30;1.20;;;;;;;;;;5010965;28;20234;-85
2022/06/06 09:33:12;;;;;;;1.20;1.20;;;;;;;;;;5033773;28;20206;-86
2022/06/06 09:35:46;;;;;;;0.95;0.95;;;;;;;;;;5043560;28;20225;-85
2022/06/06 09:38:16;;;;;;;0.90;0.90;;;;;;;;;;5049634;28;20232;-85
2022/06/06 09:40:54;;;;;;;0.82;0.82;;;;;;;;;;5045157;28;20238;-85
2022/06/06 09:43:32;;;;;;;0.82;0.82;;;;;;;;;;5052728;28;20604;-85
2022/06/06 09:46:13;;;;;;;0.80;0.80;;;;;;;;;;5053699;28;20229;-85
2022/06/06 09:48:58;;;;;;;0.60;0.60;;;;;;;;;;5042408;28;20217;-85
2022/06/06 09:51:43;;;;;;;0.82;0.82;;;;;;;;;;5051107;28;20233;-84
2022/06/06 10:00:23;;;;;;;1.05;0.98;;;;;;;;;;5031375;28;20241;-83
2022/06/06 10:03:12;;;;;;;0.90;0.90;;;;;;;;;;5052058;28;20708;-84
2022/06/06 10:06:04;;;;;;;1.08;1.08;;;;;;;;;;5051608;28;20317;-83
2022/06/06 10:08:52;;;;;;;1.15;1.10;;;;;;;;;;5051510;28;20240;-83
2022/06/06 10:11:37;;;;;;;0.98;0.93;;;;;;;;;;5061453;28;20233;-83
2022/06/06 10:14:13;;;;;;;1.13;1.10;;;;;;;;;;5061143;28;20228;-82
2022/06/06 10:16:51;;;;;;;1.00;0.93;;;;;;;;;;5059408;28;20271;-79
2022/06/06 10:19:25;;;;;;;0.98;0.98;;;;;;;;;;5058279;28;20229;-80
2022/06/06 10:22:05;;;;;;;0.90;0.90;;;;;;;;;;5056739;28;20238;-79
2022/06/06 10:24:47;;;;;;;0.60;0.60;;;;;;;;;;5052852;28;20198;-80
2022/06/06 10:27:19;;;;;;;0.60;0.60;;;;;;;;;;5052994;28;20236;-81
2022/06/06 10:30:11;;;;;;;0.82;0.82;;;;;;;;;;5053210;28;20234;-79
2022/06/06 10:33:02;;;;;;;0.63;0.63;;;;;;;;;;5052213;28;20206;-79
2022/06/06 10:35:37;;;;;;;0.80;0.80;;;;;;;;;;5052220;28;20272;-81
2022/06/06 10:38:12;;;;;;;0.73;0.73;;;;;;;;;;5052577;28;20275;-80
2022/06/06 10:40:45;;;;;;;0.60;0.60;;;;;;;;;;5051984;28;20233;-79
2022/06/06 10:43:18;;;;;;;0.52;0.52;;;;;;;;;;5052479;28;20206;-79
2022/06/06 10:45:48;;;;;;;0.68;0.68;;;;;;;;;;5051324;28;20723;-80
2022/06/06 10:48:32;;;;;;;0.57;0.57;;;;;;;;;;5051443;28;20234;-79
2022/06/06 10:54:14;;;;;;;0.43;0.43;;;;;;;;;;5053145;28;20193;-80
2022/06/06 10:57:01;;;;;;;1.08;0.73;;;;;;;;;;5053380;28;20261;-81
2022/06/06 10:59:49;;;;;;;0.50;0.50;;;;;;;;;;5053397;28;20280;-80
2022/06/06 11:02:39;;;;;;;0.35;0.35;;;;;;;;;;5052019;28;20202;-80
2022/06/06 11:05:16;;;;;;;0.40;0.40;;;;;;;;;;5052162;28;20233;-80
2022/06/06 11:07:58;;;;;;;0.70;0.70;;;;;;;;;;5056136;28;20539;-80
2022/06/06 11:10:43;;;;;;;0.65;0.65;;;;;;;;;;5057355;28;20237;-80
2022/06/06 11:13:26;;;;;;;0.70;0.70;;;;;;;;;;5045060;28;20221;-86
2022/06/06 11:16:07;;;;;;;0.70;0.70;;;;;;;;;;5054963;28;20258;-80
2022/06/06 11:18:52;;;;;;;0.55;0.55;;;;;;;;;;5057590;28;20234;-82
2022/06/06 11:21:29;;;;;;;0.40;0.40;;;;;;;;;;5058202;28;20237;-83
2022/06/06 11:24:00;;;;;;;0.70;0.70;;;;;;;;;;5059969;28;20674;-82
2022/06/06 11:26:58;;;;;;;0.70;0.70;;;;;;;;;;5058971;28;20241;-81
2022/06/06 11:29:45;;;;;;;0.75;0.75;;;;;;;;;;4976339;28;20306;-81
2022/06/06 11:32:38;;;;;;;0.90;0.85;;;;;;;;;;5046509;28;20296;-83
2022/06/06 11:35:19;;;;;;;0.45;0.45;;;;;;;;;;5058285;28;20241;-83
2022/06/06 11:38:07;;;;;;;0.60;0.60;;;;;;;;;;5059910;28;20221;-83
2022/06/06 11:40:52;;;;;;;0.50;0.50;;;;;;;;;;5057899;28;20257;-82
2022/06/06 11:43:26;;;;;;;1.02;0.68;;;;;;;;;;5056479;28;20201;-83
2022/06/06 11:46:06;;;;;;;0.50;0.50;;;;;;;;;;5058511;28;20241;-84
2022/06/06 11:48:49;;;;;;;0.40;0.40;;;;;;;;;;5056258;28;20245;-86
2022/06/06 11:51:28;;;;;;;0.50;0.50;;;;;;;;;;5056860;28;20237;-83
2022/06/06 11:54:12;;;;;;;1.30;0.77;;;;;;;;;;5058421;28;20197;-81
2022/06/06 11:56:47;;;;;;;0.45;0.45;;;;;;;;;;5058394;28;20230;-81
2022/06/06 11:59:35;;;;;;;0.57;0.57;;;;;;;;;;5058640;28;20225;-82
2022/06/06 12:02:14;;;;;;;0.57;0.57;;;;;;;;;;5056700;28;20287;-81
2022/06/06 12:05:09;;;;;;;0.60;0.60;;;;;;;;;;5055905;28;20209;-82
2022/06/06 12:07:54;;;;;;;0.55;0.55;;;;;;;;;;5057848;28;20269;-82
2022/06/06 12:10:23;;;;;;;0.60;0.50;;;;;;;;;;5055055;28;20291;-83
2022/06/06 12:13:17;;;;;;;0.60;0.60;;;;;;;;;;5054927;28;20206;-84
2022/06/06 12:15:59;;;;;;;0.57;0.57;;;;;;;;;;5007880;28;20592;-84
2022/06/06 12:18:31;;;;;;;0.60;0.60;;;;;;;;;;5055297;28;20910;-81
2022/06/06 12:21:12;;;;;;;0.80;0.80;;;;;;;;;;5054841;28;20238;-82
2022/06/06 12:23:48;;;;;;;0.50;0.50;;;;;;;;;;5056333;28;20194;-82
2022/06/06 12:26:38;;;;;;;0.65;0.65;;;;;;;;;;5055922;28;20245;-81
2022/06/06 12:29:18;;;;;;;0.50;0.50;;;;;;;;;;5049935;28;20248;-82
2022/06/06 12:31:58;;;;;;;0.63;0.63;;;;;;;;;;5056213;28;20234;-83
2022/06/06 12:34:30;;;;;;;0.70;0.70;;;;;;;;;;5055485;28;20221;-84
2022/06/06 12:37:01;;;;;;;0.50;0.50;;;;;;;;;;5053076;28;20208;-84
2022/06/06 12:39:33;;;;;;;0.70;0.70;;;;;;;;;;5053820;28;20226;-85
2022/06/06 12:42:05;;;;;;;0.35;0.35;;;;;;;;;;5053299;28;20271;-83
2022/06/06 12:44:49;;;;;;;1.30;0.80;;;;;;;;;;5052936;28;20197;-84
2022/06/06 12:47:30;;;;;;;0.43;0.43;;;;;;;;;;5052996;28;20198;-85
2022/06/06 12:50:04;;;;;;;0.60;0.60;;;;;;;;;;5052458;28;20225;-85
2022/06/06 12:52:42;;;;;;;0.55;0.55;;;;;;;;;;5052997;28;20225;-84
2022/06/06 12:55:33;;;;;;;0.40;0.40;;;;;;;;;;5052238;28;20240;-84
2022/06/06 12:58:07;;;;;;;0.57;0.57;;;;;;;;;;5053159;28;20229;-83
2022/06/06 13:03:41;;;;;;;0.50;0.50;;;;;;;;;;4991599;28;20210;-84
2022/06/06 13:06:16;;;;;;;0.30;0.30;;;;;;;;;;4996065;28;20251;-84
2022/06/06 13:08:54;;;;;;;0.70;0.70;;;;;;;;;;5035696;28;20226;-85
2022/06/06 13:11:36;;;;;;;0.60;0.60;;;;;;;;;;5044665;28;20232;-83
2022/06/06 13:14:15;;;;;;;0.50;0.50;;;;;;;;;;5030928;28;20211;-84
2022/06/06 13:16:50;;;;;;;0.70;0.70;;;;;;;;;;5032135;28;20707;-84
2022/06/06 13:19:24;;;;;;;0.60;0.60;;;;;;;;;;5032884;28;20240;-85
2022/06/06 13:21:59;;;;;;;0.50;0.50;;;;;;;;;;5032274;28;20218;-84
2022/06/06 13:24:43;;;;;;;0.43;0.43;;;;;;;;;;5032374;28;20194;-86
2022/06/06 13:27:18;;;;;;;0.90;0.90;;;;;;;;;;5032258;28;20575;-83
2022/06/06 13:29:46;;;;;;;0.60;0.60;;;;;;;;;;5031586;28;20686;-83
2022/06/06 13:32:19;;;;;;;5.88;5.40;;;;;;;;;;5032094;28;20698;-84
2022/06/06 13:34:54;;;;;;;0.90;0.90;;;;;;;;;;5032033;28;20604;-86
2022/06/06 13:37:26;;;;;;;0.50;0.50;;;;;;;;;;5032232;28;20564;-84
2022/06/06 13:40:15;;;;;;;0.40;0.40;;;;;;;;;;5031744;28;20227;-86
2022/06/06 13:42:49;;;;;;;0.70;0.70;;;;;;;;;;5031963;28;20210;-83
2022/06/06 13:45:20;;;;;;;0.73;0.73;;;;;;;;;;5031330;28;20270;-83
2022/06/06 13:48:03;;;;;;;0.60;0.60;;;;;;;;;;5031849;28;20226;-84
2022/06/06 13:50:32;;;;;;;0.50;0.50;;;;;;;;;;5031580;28;20285;-83
2022/06/06 13:53:23;;;;;;;0.70;0.70;;;;;;;;;;5031749;28;20301;-84
2022/06/06 13:56:08;;;;;;;0.73;0.73;;;;;;;;;;5031540;28;20264;-85
2022/06/06 13:58:40;;;;;;;0.98;0.98;;;;;;;;;;5032321;28;20276;-84
2022/06/06 14:01:17;;;;;;;0.47;0.47;;;;;;;;;;5031148;28;20238;-84
2022/06/06 14:03:54;;;;;;;0.73;0.73;;;;;;;;;;5032158;28;20199;-84
2022/06/06 14:06:36;;;;;;;0.55;0.55;;;;;;;;;;5031283;28;20233;-83
2022/06/06 14:09:05;;;;;;;0.60;0.52;;;;;;;;;;5031568;28;20329;-84
2022/06/06 14:11:44;;;;;;;0.60;0.60;;;;;;;;;;5031561;28;20234;-84
2022/06/06 14:14:11;;;;;;;0.50;0.50;;;;;;;;;;5031867;28;20546;-86
2022/06/06 14:16:44;;;;;;;0.52;0.52;;;;;;;;;;5030993;28;20262;-84
2022/06/06 14:19:13;;;;;;;0.73;0.73;;;;;;;;;;5031304;28;20238;-83
2022/06/06 14:21:41;;;;;;;0.47;0.47;;;;;;;;;;5031419;28;20230;-83
2022/06/06 14:24:09;;;;;;;0.68;0.68;;;;;;;;;;5031927;28;20198;-85
2022/06/06 14:26:38;;;;;;;0.45;0.45;;;;;;;;;;5031411;28;20242;-83
2022/06/06 14:29:07;;;;;;;1.52;0.50;;;;;;;;;;5031738;28;20234;-84
2022/06/06 14:31:36;;;;;;;0.50;0.50;;;;;;;;;;5038411;28;20234;-84
2022/06/06 14:34:04;;;;;;;0.70;0.60;;;;;;;;;;5049119;28;20203;-83
2022/06/06 14:36:31;;;;;;;0.40;0.40;;;;;;;;;;5049827;28;20239;-84
2022/06/06 14:38:59;;;;;;;0.63;0.63;;;;;;;;;;5049623;28;20245;-84
2022/06/06 14:41:31;;;;;;;0.20;0.20;;;;;;;;;;5054162;28;20241;-84
2022/06/06 14:44:03;;;;;;;0.55;0.55;;;;;;;;;;5053789;28;20213;-82
2022/06/06 14:46:44;;;;;;;0.50;0.50;;;;;;;;;;5043567;28;20235;-80
2022/06/06 14:49:12;;;;;;;0.70;0.70;;;;;;;;;;5036913;28;20239;-79
2022/06/06 14:51:42;;;;;;;0.50;0.50;;;;;;;;;;5035187;28;20380;-80
2022/06/06 14:54:12;;;;;;;0.80;0.80;;;;;;;;;;5035926;28;20246;-79
2022/06/06 14:56:46;;;;;;;0.55;0.55;;;;;;;;;;5050134;28;20241;-80
2022/06/06 14:59:16;;;;;;;1.23;0.60;;;;;;;;;;5054674;28;20239;-79
2022/06/06 15:01:47;;;;;;;0.55;0.55;;;;;;;;;;5052071;28;20244;-80
2022/06/06 15:04:21;;;;;;;0.50;0.50;;;;;;;;;;5063408;28;20267;-83
2022/06/06 15:06:49;;;;;;;0.40;0.40;;;;;;;;;;5065129;28;20275;-80
2022/06/06 15:09:18;;;;;;;0.40;0.40;;;;;;;;;;5064923;28;20245;-80
2022/06/06 15:11:46;;;;;;;0.70;0.70;;;;;;;;;;5060178;28;20222;-80
2022/06/06 15:14:15;;;;;;;0.50;0.50;;;;;;;;;;5065305;28;20206;-81
2022/06/06 15:16:44;;;;;;;0.50;0.50;;;;;;;;;;5064559;28;20234;-80
2022/06/06 15:19:17;;;;;;;0.75;0.75;;;;;;;;;;5062526;28;20265;-81
2022/06/06 15:21:44;;;;;;;0.60;0.60;;;;;;;;;;5055674;28;20264;-79
2022/06/06 15:24:14;;;;;;;0.68;0.63;;;;;;;;;;5054453;28;20202;-80
2022/06/06 15:26:43;;;;;;;0.80;0.80;;;;;;;;;;5054335;28;20724;-78
2022/06/06 15:29:14;;;;;;;0.57;0.57;;;;;;;;;;5055125;28;20237;-80
2022/06/06 15:31:46;;;;;;;0.60;0.60;;;;;;;;;;5053586;28;20664;-78
2022/06/06 15:34:26;;;;;;;0.68;0.68;;;;;;;;;;5053897;28;20209;-79
2022/06/06 15:36:57;;;;;;;0.30;0.30;;;;;;;;;;5054717;28;20699;-79
2022/06/06 15:39:27;;;;;;;0.40;0.40;;;;;;;;;;5034563;28;20234;-80
2022/06/06 15:41:58;;;;;;;0.30;0.30;;;;;;;;;;5035032;28;20210;-81
2022/06/06 15:44:33;;;;;;;0.63;0.40;;;;;;;;;;5034146;28;20198;-80
2022/06/06 15:47:07;;;;;;;0.50;0.40;;;;;;;;;;5034207;28;20210;-80
2022/06/06 15:49:37;;;;;;;0.40;0.40;;;;;;;;;;5033377;28;20229;-81
2022/06/06 15:52:12;;;;;;;0.55;0.43;;;;;;;;;;5033926;28;20187;-81
2022/06/06 15:54:43;;;;;;;0.45;0.45;;;;;;;;;;5033368;28;20210;-79